M I D A S
Marine Information and Data Acquisition System
Tripno 507 of the Zeeleeuw from 2003-05-28 06:13:01 to 2003-05-28 11:02:06
Back to CruiseResearch ActivitiesStationsMapUnderway DataData graphs

EquipmentUnitsComments
TimeDGPSUTC
LatitudeDGPSDM.mWGS84
LongitudeDGPSDM.mWGS84
SpeedMeteo Stationm/sRelative wind speed
DirectionMeteo StationdegRelative wind direction
TemperatureMeteo Stationdeg CelciusAir temperature
PressureMeteo StationPaAtmospheric pressure
HumidityMeteo Station%Relative humidity
Missing or incorrect values are displayed as -999
Metereological data collected by the RV Zeeleeuw from 2003-05-28 06:13:01 to 2003-05-28 11:02:06
Time Latitude Longitude Speed Direction Temperature Pressure Humidity
2003-05-28 06:14 51°13.61 2°56.09 1.9 95 15.5 102400 77
2003-05-28 06:15 51°13.61 2°56.09 1.4 75 15.5 102400 77
2003-05-28 06:16 51°13.61 2°56.07 2.2 39 15.6 102400 77
2003-05-28 06:17 51°13.63 2°55.97 2.3 355 15.5 102390 76
2003-05-28 06:18 51°13.67 2°55.85 2   15.4 102400 76
2003-05-28 06:19 51°13.68 2°55.82 1.8 71 15.3 102400 76
2003-05-28 06:20 51°13.68 2°55.76 0.1 4 15.3 102400 77
2003-05-28 06:21 51°13.69 2°55.76 1.1 74 15.3 102390 76
2003-05-28 06:22 51°13.68 2°55.74 1.3 85 15.3 102400 76
2003-05-28 06:23 51°13.72 2°55.72 3.1 6 15.2 102390 76
2003-05-28 06:24 51°13.81 2°55.65 3.2 355 15.1 102390 77
2003-05-28 06:25 51°13.92 2°55.57 4.8 357 15.1 102400 77
2003-05-28 06:26 51°14.05 2°55.48 4.7 3 15 102390 77
2003-05-28 06:27 51°14.17 2°55.37 5.5   15.1 102400 78
2003-05-28 06:28 51°14.28 2°55.22 4.8 346 15 102390 79
2003-05-28 06:29 51°14.36 2°55.05 5 347 14.9 102400 80
2003-05-28 06:30 51°14.4 2°54.79 5 318 14.7 102400 81
2003-05-28 06:31 51°14.41 2°54.46 4.2 292 14.5 102400 82
2003-05-28 06:32 51°14.34 2°54.16 4.3 267 14.4 102400 83
2003-05-28 06:33 51°14.17 2°53.64 4.6 260 14.4 102400 84
2003-05-28 06:34 51°14.04 2°53.24 4.3 257 14.4 102400 84
2003-05-28 06:36 51°13.91 2°52.89 4.8 259 14.4 102400 84
2003-05-28 06:37 51°13.78 2°52.53 5.2 262 14.4 102400 84
2003-05-28 06:38 51°13.65 2°52.19 5.5 261 14.4 102400 84
2003-05-28 06:39 51°13.53 2°51.84 5.1 261 14.4 102400 84
2003-05-28 06:40 51°13.41 2°51.5 5.1 261 14.4 102400 84
2003-05-28 06:41 51°13.28 2°51.16 5.1 261 14.4 102400 84
2003-05-28 06:42 51°13.16 2°50.81 5.1 261 14.4 102400 84
2003-05-28 06:43 51°13.03 2°50.44 5.1 261 14.4 102400 84
2003-05-28 06:44 51°12.86 2°49.98 5.1 261 14.4 102400 84
2003-05-28 06:45 51°12.74 2°49.63 5.1 261 14.4 102400 84
2003-05-28 06:46 51°12.62 2°49.28 5.1 261 14.5 102400 85
2003-05-28 06:47 51°12.5 2°48.94 5.1 261 14.5 102400 85
2003-05-28 06:48 51°12.37 2°48.57 5.1 261 14.6 102400 85
2003-05-28 06:49 51°12.24 2°48.21 5.1 261 14.5 102400 86
2003-05-28 06:50 51°12.12 2°47.86 5.1 261 14.5 102390 86
2003-05-28 06:51 51°11.97 2°47.4 5.1 261 14.5 102400 86
2003-05-28 06:53 51°11.84 2°46.95 5.1 261 14.4 102390 87
2003-05-28 06:54 51°11.73 2°46.59 5.1 261 14.4 102400 87
2003-05-28 06:55 51°11.64 2°46.22 5.1 261 14.4 102390 87
2003-05-28 06:56 51°11.54 2°45.81 5.1 261 14.4 102400 87
2003-05-28 06:57 51°11.45 2°45.44 5.1 261 14.4 102400 87
2003-05-28 06:58 51°11.37 2°45.06 5.1 261 14.4 102400 87
2003-05-28 06:59 51°11.29 2°44.66 5.1 261 14.4 102400 87
2003-05-28 07:00 51°11.21 2°44.24 5.1 261 14.4 102400 87
2003-05-28 07:01 51°11.13 2°43.8 5.1 261 14.4 102400 87
2003-05-28 07:02 51°11.05 2°43.38 5.1 261 14.4 102400 87
2003-05-28 07:03 51°10.97 2°42.95 5.1 261 14.4 102400 87
2003-05-28 07:04 51°10.9 2°42.53 5.1 261 14.4 102400 87
2003-05-28 07:06 51°10.83 2°42.11 5.1 261 14.4 102400 87
2003-05-28 07:07 51°10.75 2°41.61 5.1 261 14.4 102400 87
2003-05-28 07:08 51°10.68 2°41.2 5.1 261 14.4 102400 87
2003-05-28 07:09 51°10.61 2°40.77 5.1 261 14.4 102400 87
2003-05-28 07:10 51°10.56 2°40.4 5.1 261 14.4 102400 87
2003-05-28 07:11 51°10.48 2°39.92 5.1 261 14.4 102400 87
2003-05-28 07:13 51°10.41 2°39.47 5.1 261 14.4 102400 87
2003-05-28 07:14 51°10.34 2°39.06 5.1 261 14.4 102400 87
2003-05-28 07:15 51°10.27 2°38.59 5.1 261 14.4 102400 87
2003-05-28 07:16 51°10.2 2°38.18 5.1 261 14.4 102400 87
2003-05-28 07:17 51°10.13 2°37.74 5.1 261 14.4 102400 87
2003-05-28 07:18 51°10.07 2°37.32 5.1 261 14.4 102400 87
2003-05-28 07:19 51°9.99 2°36.86 5.1 261 14.4 102400 87
2003-05-28 07:21 51°9.92 2°36.38 5.1 261 14.4 102400 87
2003-05-28 07:22 51°9.98 2°35.99 5.1 261 14.4 102400 87
2003-05-28 07:23 51°10.17 2°35.76 5.1 261 14.4 102400 87
2003-05-28 07:24 51°10.39 2°35.75 5.1 261 14.4 102400 87
2003-05-28 07:25 51°10.61 2°35.86 5.1 261 14.4 102400 87
2003-05-28 07:26 51°10.84 2°36.05 5.1 261 14.4 102400 87
2003-05-28 07:27 51°11.05 2°36.27 5.1 261 14.4 102400 87
2003-05-28 07:28 51°11.23 2°36.46 5.1 261 14.4 102400 87
2003-05-28 07:29 51°11.45 2°36.69 5.1 261 14.4 102400 87
2003-05-28 07:31 51°11.66 2°36.9 5.1 261 14.4 102400 87
2003-05-28 07:32 51°11.87 2°37.12 5.1 261 14.4 102400 87
2003-05-28 07:33 51°12.06 2°37.31 5.1 261 14.4 102400 87
2003-05-28 07:34 51°12.31 2°37.57 5.1 261 14.4 102400 87
2003-05-28 07:35 51°12.51 2°37.77 5.1 261 14.4 102400 87
2003-05-28 07:36 51°12.69 2°37.96 5.1 261 14.4 102400 87
2003-05-28 07:37 51°12.92 2°38.2 5.1 261 14.4 102400 87
2003-05-28 07:39 51°13.13 2°38.38 5.1 261 14.4 102400 87
2003-05-28 07:40 51°13.34 2°38.54 5.1 261 14.4 102400 87
2003-05-28 07:41 51°13.58 2°38.7 5.1 261 14.4 102400 87
2003-05-28 07:42 51°13.8 2°38.82 5.1 261 14.4 102400 87
2003-05-28 07:43 51°14.04 2°38.78 5.1 261 14.4 102400 87
2003-05-28 07:44 51°14.11 2°38.4 5.1 261 14.4 102400 87
2003-05-28 07:45 51°14.02 2°38.04 5.1 261 14.4 102400 87
2003-05-28 07:46 51°13.9 2°37.7 5.1 261 14.4 102400 87
2003-05-28 07:47 51°13.74 2°37.24 5.1 261 14.4 102400 87
2003-05-28 07:49 51°13.59 2°36.8 5.1 261 14.4 102400 87
2003-05-28 07:50 51°13.45 2°36.37 5.1 261 14.4 102400 87
2003-05-28 07:51 51°13.35 2°36 5.1 261 14.4 102400 87
2003-05-28 07:52 51°13.23 2°35.55 5.1 261 14.4 102400 87
2003-05-28 07:53 51°13.14 2°35.18 5.1 261 14.4 102400 87
2003-05-28 07:55 51°13.02 2°34.75 5.1 261 14.4 102400 87
2003-05-28 07:56 51°12.91 2°34.33 5.1 261 14.4 102400 87
2003-05-28 07:57 51°12.81 2°33.95 5.1 261 14.4 102400 87
2003-05-28 07:58 51°12.71 2°33.6 5.1 261 14.4 102400 87
2003-05-28 07:59 51°12.6 2°33.21 5.1 261 14.4 102400 87
2003-05-28 08:00 51°12.5 2°32.84 5.1 261 14.4 102400 87
2003-05-28 08:01 51°12.4 2°32.49 5.1 261 14.4 102400 87
2003-05-28 08:02 51°12.31 2°32.14 5.1 261 14.4 102400 87
2003-05-28 08:03 51°12.21 2°31.79 5.1 261 14.4 102400 87
2003-05-28 08:04 51°12.12 2°31.41 5.1 261 14.4 102400 87
2003-05-28 08:05 51°12.03 2°31.05 5.1 261 14.4 102400 87
2003-05-28 08:06 51°11.94 2°30.68 5.1 261 14.4 102400 87
2003-05-28 08:07 51°11.86 2°30.34 5.1 261 14.4 102400 87
2003-05-28 08:08 51°11.78 2°29.99 5.1 261 14.4 102400 87
2003-05-28 08:09 51°11.69 2°29.62 5.1 261 14.4 102400 87
2003-05-28 08:10 51°11.61 2°29.28 5.1 261 14.4 102400 87
2003-05-28 08:11 51°11.52 2°28.92 5.1 261 14.4 102400 87
2003-05-28 08:12 51°11.44 2°28.58 5.1 261 14.4 102400 87
2003-05-28 08:13 51°11.35 2°28.17 5.1 261 14.4 102400 87
2003-05-28 08:14 51°11.31 2°27.81 5.1 261 14.4 102400 87
2003-05-28 08:15 51°11.3 2°27.46 5.1 261 14.4 102400 87
2003-05-28 08:16 51°11.29 2°27.11 5.1 261 14.4 102400 87
2003-05-28 08:17 51°11.28 2°26.76 5.1 261 14.4 102400 87
2003-05-28 08:18 51°11.26 2°26.41 5.1 261 14.4 102400 87
2003-05-28 08:19 51°11.25 2°26.05 5.1 261 14.4 102400 87
2003-05-28 08:20 51°11.28 2°25.71 5.1 261 14.4 102400 87
2003-05-28 08:21 51°11.4 2°25.42 5.1 261 14.4 102400 87
2003-05-28 08:22 51°11.6 2°25.3 5.1 261 14.4 102400 87
2003-05-28 08:23 51°11.82 2°25.4 5.1 261 14.4 102400 87
2003-05-28 08:24 51°12.03 2°25.55 5.1 261 14.4 102400 87
2003-05-28 08:25 51°12.22 2°25.77 5.1 261 14.4 102400 87
2003-05-28 08:26 51°12.39 2°26.01 5.1 261 14.4 102400 87
2003-05-28 08:27 51°12.56 2°26.25 5.1 261 14.4 102400 87
2003-05-28 08:28 51°12.74 2°26.49 5.1 261 14.4 102400 87
2003-05-28 08:29 51°12.91 2°26.74 5.1 261 14.4 102400 87
2003-05-28 08:30 51°13.08 2°26.99 5.1 261 14.4 102400 87
2003-05-28 08:31 51°13.25 2°27.23 5.1 261 14.4 102400 87
2003-05-28 08:32 51°13.42 2°27.48 5.1 261 14.4 102400 87
2003-05-28 08:33 51°13.59 2°27.72 5.1 261 14.4 102400 87
2003-05-28 08:34 51°13.77 2°27.97 5.1 261 14.4 102400 87
2003-05-28 08:35 51°13.94 2°28.22 5.1 261 14.4 102400 87
2003-05-28 08:36 51°14.11 2°28.47 5.1 261 14.4 102400 87
2003-05-28 08:37 51°14.28 2°28.72 5.1 261 14.4 102400 87
2003-05-28 08:38 51°14.46 2°28.96 5.1 261 14.4 102400 87
2003-05-28 08:39 51°14.63 2°29.23 5.1 261 14.4 102400 87
2003-05-28 08:40 51°14.79 2°29.5 5.1 261 14.4 102400 87
2003-05-28 08:41 51°14.96 2°29.77 5.1 261 14.4 102400 87
2003-05-28 08:42 51°15.13 2°30.04 5.1 261 14.4 102400 87
2003-05-28 08:43 51°15.3 2°30.31 5.1 261 14.4 102400 87
2003-05-28 08:44 51°15.47 2°30.58 5.1 261 14.4 102400 87
2003-05-28 08:45 51°15.64 2°30.85 5.1 261 14.4 102400 87
2003-05-28 08:46 51°15.81 2°31.13 5.1 261 14.4 102400 87
2003-05-28 08:47 51°15.98 2°31.4 5.1 261 14.4 102400 87
2003-05-28 08:48 51°16.15 2°31.67 5.1 261 14.4 102400 87
2003-05-28 08:49 51°16.31 2°31.95 5.1 261 14.4 102400 87
2003-05-28 08:50 51°16.48 2°32.22 5.1 261 14.4 102400 87
2003-05-28 08:51 51°16.65 2°32.49 5.1 261 14.4 102400 87
2003-05-28 08:52 51°16.81 2°32.77 5.1 261 14.4 102400 87
2003-05-28 08:53 51°16.98 2°33.04 5.1 261 14.4 102400 87
2003-05-28 08:54 51°17.14 2°33.31 5.1 261 14.4 102400 87
2003-05-28 08:55 51°17.31 2°33.58 5.1 261 14.4 102400 87
2003-05-28 08:56 51°17.48 2°33.86 5.1 261 14.4 102400 87
2003-05-28 08:57 51°17.65 2°34.13 5.1 261 14.4 102400 87
2003-05-28 08:58 51°17.82 2°34.4 5.1 261 14.4 102400 87
2003-05-28 08:59 51°17.99 2°34.67 5.1 261 14.4 102400 87
2003-05-28 09:00 51°18.16 2°34.95 5.1 261 14.4 102400 87
2003-05-28 09:01 51°18.33 2°35.23 5.1 261 14.4 102400 87
2003-05-28 09:02 51°18.48 2°35.53 5.1 261 14.4 102400 87
2003-05-28 09:03 51°18.6 2°35.87 5.1 261 14.4 102400 87
2003-05-28 09:04 51°18.72 2°36.2 5.1 261 14.4 102400 87
2003-05-28 09:05 51°18.84 2°36.54 5.1 261 14.4 102400 87
2003-05-28 09:06 51°18.96 2°36.88 5.1 261 14.4 102400 87
2003-05-28 09:07 51°19.08 2°37.22 5.1 261 14.4 102400 87
2003-05-28 09:08 51°19.21 2°37.56 5.1 261 14.4 102400 87
2003-05-28 09:09 51°19.33 2°37.9 5.1 261 14.4 102400 87
2003-05-28 09:10 51°19.45 2°38.23 5.1 261 14.4 102400 87
2003-05-28 09:11 51°19.57 2°38.56 5.1 261 14.4 102400 87
2003-05-28 09:12 51°19.69 2°38.89 5.1 261 14.4 102400 87
2003-05-28 09:13 51°19.81 2°39.24 5.1 261 14.4 102400 87
2003-05-28 09:14 51°19.89 2°39.6 5.1 261 14.4 102400 87
2003-05-28 09:15 51°19.98 2°39.96 5.1 261 14.4 102400 87
2003-05-28 09:16 51°20.03 2°40.33 5.1 261 14.4 102400 87
2003-05-28 09:17 51°20.08 2°40.71 5.1 261 14.4 102400 87
2003-05-28 09:18 51°20.05 2°41.1 5.1 261 14.4 102400 87
2003-05-28 09:19 51°20.02 2°41.49 5.1 261 14.4 102400 87
2003-05-28 09:20 51°20 2°41.89 5.1 261 14.4 102400 87
2003-05-28 09:21 51°19.98 2°42.28 5.1 261 14.4 102400 87
2003-05-28 09:22 51°19.96 2°42.68 5.1 261 14.4 102400 87
2003-05-28 09:23 51°19.94 2°43.07 5.1 261 14.4 102400 87
2003-05-28 09:24 51°19.92 2°43.46 5.1 261 14.4 102400 87
2003-05-28 09:25 51°19.9 2°43.84 5.1 261 14.4 102400 87
2003-05-28 09:26 51°19.88 2°44.22 5.1 261 14.4 102400 87
2003-05-28 09:27 51°19.86 2°44.61 5.1 261 14.4 102400 87
2003-05-28 09:28 51°19.85 2°44.99 5.1 261 14.4 102400 87
2003-05-28 09:29 51°19.83 2°45.38 5.1 261 14.4 102400 87
2003-05-28 09:30 51°19.76 2°45.74 5.1 261 14.4 102400 87
2003-05-28 09:31 51°19.64 2°46.08 5.1 261 14.4 102400 87
2003-05-28 09:32 51°19.52 2°46.42 5.1 261 14.4 102400 87
2003-05-28 09:33 51°19.4 2°46.76 5.1 261 14.4 102400 87
2003-05-28 09:34 51°19.29 2°47.09 5.1 261 14.4 102400 87
2003-05-28 09:35 51°19.17 2°47.43 5.1 261 14.4 102400 87
2003-05-28 09:36 51°19.06 2°47.77 5.1 261 14.4 102400 87
2003-05-28 09:37 51°18.95 2°48.11 5.1 261 14.4 102400 87
2003-05-28 09:38 51°18.84 2°48.45 5.1 261 14.4 102400 87
2003-05-28 09:39 51°18.72 2°48.79 5.1 261 14.4 102400 87
2003-05-28 09:40 51°18.61 2°49.13 5.1 261 14.4 102400 87
2003-05-28 09:41 51°18.49 2°49.47 5.1 261 14.4 102400 87
2003-05-28 09:42 51°18.38 2°49.82 5.1 261 14.4 102400 87
2003-05-28 09:43 51°18.27 2°50.16 5.1 261 14.4 102400 87
2003-05-28 09:44 51°18.16 2°50.51 5.1 261 14.4 102400 87
2003-05-28 09:45 51°18.03 2°50.84 5.1 261 14.4 102400 87
2003-05-28 09:46 51°17.91 2°51.17 5.1 261 14.4 102400 87
2003-05-28 09:47 51°17.77 2°51.48 5.1 261 14.4 102400 87
2003-05-28 09:48 51°17.64 2°51.8 5.1 261 14.4 102400 87
2003-05-28 09:49 51°17.5 2°52.12 5.1 261 14.4 102400 87
2003-05-28 09:50 51°17.37 2°52.43 5.1 261 14.4 102400 87
2003-05-28 09:51 51°17.22 2°52.71 5.1 261 14.4 102400 87
2003-05-28 09:52 51°17.07 2°53.02 5.1 261 14.4 102400 87
2003-05-28 09:53 51°16.94 2°53.35 5.1 261 14.4 102400 87
2003-05-28 09:54 51°16.81 2°53.68 5.1 261 14.4 102400 87
2003-05-28 09:55 51°16.69 2°54.02 5.1 261 14.4 102400 87
2003-05-28 09:56 51°16.56 2°54.36 5.1 261 14.4 102400 87
2003-05-28 09:57 51°16.45 2°54.68 5.1 261 14.4 102400 87
2003-05-28 09:58 51°16.37 2°54.95 5.1 261 14.4 102400 87
2003-05-28 09:59 51°16.36 2°55.13 5.1 261 14.4 102400 87
2003-05-28 10:00 51°16.4 2°55.25 5.1 261 14.4 102400 87
2003-05-28 10:01 51°16.45 2°55.33 5.1 261 14.4 102400 87
2003-05-28 10:02 51°16.46 2°55.37 5.1 261 14.4 102400 87
2003-05-28 10:03 51°16.48 2°55.4 5.1 261 14.4 102400 87
2003-05-28 10:04 51°16.51 2°55.43 5.1 261 14.4 102400 87
2003-05-28 10:05 51°16.54 2°55.46 5.1 261 14.4 102400 87
2003-05-28 10:06 51°16.56 2°55.48 5.1 261 14.4 102400 87
2003-05-28 10:07 51°16.58 2°55.51 5.1 261 14.4 102400 87
2003-05-28 10:08 51°16.6 2°55.53 5.1 261 14.4 102400 87
2003-05-28 10:09 51°16.62 2°55.56 5.1 261 14.4 102400 87
2003-05-28 10:10 51°16.64 2°55.59 5.1 261 14.4 102400 87
2003-05-28 10:11 51°16.66 2°55.62 5.1 261 14.4 102400 87
2003-05-28 10:12 51°16.67 2°55.65 5.1 261 14.4 102400 87
2003-05-28 10:13 51°16.69 2°55.69 5.1 261 14.4 102400 87
2003-05-28 10:14 51°16.7 2°55.72 5.1 261 14.4 102400 87
2003-05-28 10:15 51°16.72 2°55.75 5.1 261 14.4 102400 87
2003-05-28 10:16 51°16.73 2°55.78 5.1 261 14.4 102400 87
2003-05-28 10:17 51°16.75 2°55.81 5.1 261 14.4 102400 87
2003-05-28 10:18 51°16.76 2°55.84 5.1 261 14.4 102400 87
2003-05-28 10:19 51°16.78 2°55.87 5.1 261 14.4 102400 87
2003-05-28 10:20 51°16.79 2°55.91 5.1 261 14.4 102400 87
2003-05-28 10:21 51°16.8 2°55.94 5.1 261 14.4 102400 87
2003-05-28 10:22 51°16.82 2°55.97 5.1 261 14.4 102400 87
2003-05-28 10:23 51°16.83 2°56 5.1 261 14.4 102400 87
2003-05-28 10:24 51°16.85 2°56.03 5.1 261 14.4 102400 87
2003-05-28 10:25 51°16.86 2°56.06 5.1 261 14.4 102400 87
2003-05-28 10:26 51°16.88 2°56.09 5.1 261 14.4 102400 87
2003-05-28 10:27 51°16.89 2°56.12 5.1 261 14.4 102400 87
2003-05-28 10:28 51°16.9 2°56.16 5.1 261 14.4 102400 87
2003-05-28 10:29 51°16.92 2°56.18 5.1 261 14.4 102400 87
2003-05-28 10:30 51°16.93 2°56.21 5.1 261 14.4 102400 87
2003-05-28 10:31 51°16.95 2°56.24 5.1 261 14.4 102400 87
2003-05-28 10:32 51°16.96 2°56.27 5.1 261 14.4 102400 87
2003-05-28 10:33 51°16.98 2°56.31 5.1 261 14.4 102400 87
2003-05-28 10:34 51°16.99 2°56.34 5.1 261 14.4 102400 87
2003-05-28 10:35 51°17.01 2°56.35 5.1 261 14.4 102400 87
2003-05-28 10:36 51°17.02 2°56.32 5.1 261 14.4 102400 87
2003-05-28 10:37 51°16.98 2°56.29 5.1 261 14.4 102400 87
2003-05-28 10:38 51°16.93 2°56.26 5.1 261 14.4 102400 87
2003-05-28 10:39 51°16.89 2°56.19 5.1 261 14.4 102400 87
2003-05-28 10:40 51°16.76 2°56.07 5.1 261 14.4 102400 87
2003-05-28 10:41 51°16.6 2°55.91 5.1 261 14.4 102400 87
2003-05-28 10:42 51°16.44 2°55.73 5.1 261 14.4 102400 87
2003-05-28 10:43 51°16.27 2°55.55 5.1 261 14.4 102400 87
2003-05-28 10:44 51°16.11 2°55.37 5.1 261 14.4 102400 87
2003-05-28 10:45 51°15.94 2°55.18 5.1 261 14.4 102400 87
2003-05-28 10:46 51°15.77 2°55 5.1 261 14.4 102400 87
2003-05-28 10:47 51°15.6 2°54.82 5.1 261 14.4 102400 87
2003-05-28 10:48 51°15.43 2°54.64 5.1 261 14.4 102400 87
2003-05-28 10:49 51°15.23 2°54.56 5.1 261 14.4 102400 87
2003-05-28 10:50 51°15.02 2°54.59 5.1 261 14.4 102400 87
2003-05-28 10:51 51°14.81 2°54.68 5.1 261 14.4 102400 87
2003-05-28 10:52 51°14.63 2°54.82 5.1 261 14.4 102400 87
2003-05-28 10:53 51°14.45 2°54.95 5.1 261 14.4 102400 87
2003-05-28 10:54 51°14.3 2°55.16 5.1 261 14.4 102400 87
2003-05-28 10:55 51°14.22 2°55.32 5.1 261 14.4 102400 87
2003-05-28 10:56 51°14.15 2°55.4 5.1 261 14.4 102400 87
2003-05-28 10:57 51°14.08 2°55.46 5.1 261 14.4 102400 87
2003-05-28 10:58 51°14.01 2°55.51 5.1 261 14.4 102400 87
2003-05-28 10:59 51°13.93 2°55.56 5.1 261 14.4 102400 87
2003-05-28 11:00 51°13.86 2°55.61 5.1 261 14.4 102400 87
2003-05-28 11:01 51°13.78 2°55.68 5.1 261 14.4 102400 87